Time;durP1;ratioP1;P1;durP2;ratioP2;P2;SDS_P1;SDS_P2;PMS_P1;PMS_P2;Temp;Humidity;BMP_temperature;BMP_pressure;BME280_temperature;BME280_humidity;BME280_pressure;Samples;Min_cycle;Max_cycle;Signal;HPM_P1;HPM_P2
2024/01/06 00:01:11;;;;;;;8.38;7.63;;;;;;;;;;10027248;28;20053;-72
2024/01/06 00:06:03;;;;;;;11.05;10.02;;;;;;;;;;10044861;28;20037;-72
2024/01/06 00:10:55;;;;;;;8.88;7.97;;;;;;;;;;10030856;28;20065;-72
2024/01/06 00:15:47;;;;;;;10.13;9.25;;;;;;;;;;10063220;28;20061;-69
2024/01/06 00:20:39;;;;;;;10.40;9.60;;;;;;;;;;10070729;28;20140;-69
2024/01/06 00:25:31;;;;;;;10.15;9.25;;;;;;;;;;10065703;28;20176;-68
2024/01/06 00:30:23;;;;;;;8.85;8.05;;;;;;;;;;10069887;28;20084;-69
2024/01/06 00:35:15;;;;;;;8.20;7.50;;;;;;;;;;10070296;28;20079;-68
2024/01/06 00:40:07;;;;;;;10.32;9.32;;;;;;;;;;10069829;28;20049;-68
2024/01/06 00:44:59;;;;;;;7.18;6.57;;;;;;;;;;10069190;28;20042;-68
2024/01/06 00:49:51;;;;;;;12.98;11.65;;;;;;;;;;10069959;28;20053;-68
2024/01/06 00:54:43;;;;;;;9.48;8.48;;;;;;;;;;10069174;28;20076;-68
2024/01/06 00:59:35;;;;;;;10.50;9.45;;;;;;;;;;10069044;28;20044;-69
2024/01/06 01:04:27;;;;;;;8.23;6.20;;;;;;;;;;10069043;28;20038;-68
2024/01/06 01:09:19;;;;;;;11.82;9.77;;;;;;;;;;10069020;28;20049;-68
2024/01/06 01:14:10;;;;;;;12.55;10.00;;;;;;;;;;10068285;28;20380;-68
2024/01/06 01:19:02;;;;;;;20.95;13.48;;;;;;;;;;10068137;28;20395;-68
2024/01/06 01:23:54;;;;;;;7.00;6.40;;;;;;;;;;10068463;28;20041;-69
2024/01/06 01:28:46;;;;;;;6.30;5.70;;;;;;;;;;10067769;28;20041;-68
2024/01/06 01:33:38;;;;;;;6.78;6.10;;;;;;;;;;10068019;28;20052;-69
2024/01/06 01:38:30;;;;;;;22.13;7.07;;;;;;;;;;10067118;28;20455;-69
2024/01/06 01:43:23;;;;;;;6.15;5.55;;;;;;;;;;10067637;28;20072;-69
2024/01/06 01:48:15;;;;;;;9.45;8.02;;;;;;;;;;10066771;28;20737;-70
2024/01/06 01:53:07;;;;;;;6.10;5.50;;;;;;;;;;10066198;28;20065;-69
2024/01/06 01:57:59;;;;;;;5.47;5.07;;;;;;;;;;10067142;28;20045;-68
2024/01/06 02:02:52;;;;;;;5.63;5.13;;;;;;;;;;10065391;28;20096;-68
2024/01/06 02:07:45;;;;;;;6.90;6.20;;;;;;;;;;10065640;28;20448;-69
2024/01/06 02:12:37;;;;;;;6.40;5.80;;;;;;;;;;10066652;28;20403;-69
2024/01/06 02:17:28;;;;;;;6.80;6.20;;;;;;;;;;10065819;28;20041;-69
2024/01/06 02:22:20;;;;;;;4.72;4.43;;;;;;;;;;10065351;28;20116;-69
2024/01/06 02:27:12;;;;;;;107.10;26.63;;;;;;;;;;10065146;28;20060;-67
2024/01/06 02:32:04;;;;;;;5.78;5.28;;;;;;;;;;10064203;28;20042;-69
2024/01/06 02:36:56;;;;;;;90.18;27.00;;;;;;;;;;10063151;28;20053;-67
2024/01/06 02:41:48;;;;;;;5.00;4.60;;;;;;;;;;10063555;28;20049;-70
2024/01/06 02:46:40;;;;;;;5.60;5.10;;;;;;;;;;10064308;28;20156;-68
2024/01/06 02:51:32;;;;;;;5.25;4.53;;;;;;;;;;10063689;28;20041;-69
2024/01/06 02:56:24;;;;;;;5.50;5.10;;;;;;;;;;10063924;28;20041;-69
2024/01/06 03:01:17;;;;;;;5.07;4.78;;;;;;;;;;10055117;28;20445;-69
2024/01/06 03:06:09;;;;;;;5.78;5.32;;;;;;;;;;10025567;28;20045;-68
2024/01/06 03:11:03;;;;;;;5.15;4.75;;;;;;;;;;10024254;28;20073;-68
2024/01/06 03:15:55;;;;;;;4.60;4.20;;;;;;;;;;10027034;28;20042;-68
2024/01/06 03:20:47;;;;;;;3.78;3.55;;;;;;;;;;10026590;28;20145;-70
2024/01/06 03:25:39;;;;;;;3.70;3.40;;;;;;;;;;10026158;28;20057;-67
2024/01/06 03:30:31;;;;;;;4.00;3.78;;;;;;;;;;9984727;28;1143476;-70
2024/01/06 03:35:23;;;;;;;3.25;3.05;;;;;;;;;;10027191;28;20046;-69
2024/01/06 03:40:15;;;;;;;3.58;3.28;;;;;;;;;;10034644;28;20353;-69
2024/01/06 03:45:07;;;;;;;3.70;3.40;;;;;;;;;;10035365;28;20057;-69
2024/01/06 03:49:59;;;;;;;3.50;3.30;;;;;;;;;;10034806;28;20136;-69
2024/01/06 03:54:51;;;;;;;3.60;3.40;;;;;;;;;;10034824;28;20050;-68
2024/01/06 03:59:43;;;;;;;3.60;3.40;;;;;;;;;;10034608;28;20519;-69
2024/01/06 04:04:35;;;;;;;3.75;3.50;;;;;;;;;;10033674;28;20100;-68
2024/01/06 04:09:27;;;;;;;4.03;3.72;;;;;;;;;;10033790;28;20112;-70
2024/01/06 04:14:19;;;;;;;4.20;3.90;;;;;;;;;;10034808;28;20038;-70
2024/01/06 04:19:12;;;;;;;4.25;3.95;;;;;;;;;;10032829;28;20345;-70
2024/01/06 04:24:05;;;;;;;4.30;4.00;;;;;;;;;;10033848;28;20468;-69
2024/01/06 04:28:56;;;;;;;4.68;4.28;;;;;;;;;;10033377;28;20045;-68
2024/01/06 04:33:48;;;;;;;4.78;4.38;;;;;;;;;;10033648;28;20054;-69
2024/01/06 04:38:41;;;;;;;4.53;4.20;;;;;;;;;;10032822;28;20054;-68
2024/01/06 04:43:32;;;;;;;4.78;4.38;;;;;;;;;;10031952;28;20121;-68
2024/01/06 04:48:24;;;;;;;4.80;4.40;;;;;;;;;;10032974;28;20152;-68
2024/01/06 04:53:16;;;;;;;4.70;4.40;;;;;;;;;;10032430;28;20485;-70
2024/01/06 04:58:08;;;;;;;4.50;4.20;;;;;;;;;;10031781;28;20053;-70
2024/01/06 05:03:00;;;;;;;5.15;4.75;;;;;;;;;;10032325;28;20038;-70
2024/01/06 05:07:52;;;;;;;4.30;4.00;;;;;;;;;;10031261;28;20551;-70
2024/01/06 05:12:44;;;;;;;4.97;4.57;;;;;;;;;;10031713;28;20077;-70
2024/01/06 05:17:36;;;;;;;5.38;4.88;;;;;;;;;;10031335;28;20069;-70
2024/01/06 05:22:28;;;;;;;4.88;4.47;;;;;;;;;;10031008;28;20083;-70
2024/01/06 05:27:20;;;;;;;4.50;4.10;;;;;;;;;;10030706;28;20046;-70
2024/01/06 05:32:12;;;;;;;4.63;4.25;;;;;;;;;;10030076;28;20054;-70
2024/01/06 05:37:04;;;;;;;4.43;4.13;;;;;;;;;;10030893;28;20042;-69
2024/01/06 05:41:56;;;;;;;4.60;4.30;;;;;;;;;;10029736;28;20096;-69
2024/01/06 05:46:47;;;;;;;4.43;4.13;;;;;;;;;;10030631;28;20057;-69
2024/01/06 05:51:44;;;;;;;4.55;4.25;;;;;;;;;;10029554;28;20046;-69
2024/01/06 05:56:36;;;;;;;5.95;5.45;;;;;;;;;;10029072;28;20184;-70
2024/01/06 06:01:28;;;;;;;5.75;5.07;;;;;;;;;;10029381;28;20072;-70
2024/01/06 06:06:20;;;;;;;7.78;7.07;;;;;;;;;;10028821;28;20053;-70
2024/01/06 06:11:12;;;;;;;6.10;5.50;;;;;;;;;;10030676;28;20056;-70
2024/01/06 06:16:05;;;;;;;6.40;5.80;;;;;;;;;;10028408;28;20057;-70
2024/01/06 06:20:57;;;;;;;5.90;5.40;;;;;;;;;;10028451;28;20042;-70
2024/01/06 06:25:49;;;;;;;6.18;5.68;;;;;;;;;;10029004;28;20659;-70
2024/01/06 06:30:40;;;;;;;5.88;5.38;;;;;;;;;;10028027;28;20472;-70
2024/01/06 06:35:33;;;;;;;5.20;4.80;;;;;;;;;;10028446;28;20088;-69
2024/01/06 06:40:25;;;;;;;6.78;6.28;;;;;;;;;;10027833;28;20041;-70
2024/01/06 06:45:20;;;;;;;5.93;5.43;;;;;;;;;;10028707;28;20034;-70
2024/01/06 06:50:12;;;;;;;7.00;6.40;;;;;;;;;;10027978;28;20054;-70
2024/01/06 06:55:04;;;;;;;6.35;5.80;;;;;;;;;;10027521;28;20044;-70
2024/01/06 06:59:56;;;;;;;6.40;5.90;;;;;;;;;;10026835;28;20451;-70
2024/01/06 07:04:48;;;;;;;5.88;5.38;;;;;;;;;;10038775;28;20049;-70
2024/01/06 07:09:40;;;;;;;5.18;4.78;;;;;;;;;;10062911;28;20104;-70
2024/01/06 07:14:32;;;;;;;9.13;7.85;;;;;;;;;;10062028;28;20043;-70
2024/01/06 07:19:24;;;;;;;8.23;7.45;;;;;;;;;;10054285;28;20042;-70
2024/01/06 07:24:16;;;;;;;8.60;7.85;;;;;;;;;;10064358;28;20092;-70
2024/01/06 07:29:08;;;;;;;6.00;5.50;;;;;;;;;;10062888;28;20144;-70
2024/01/06 07:34:00;;;;;;;6.28;5.78;;;;;;;;;;10037497;28;20132;-70
2024/01/06 07:38:51;;;;;;;8.95;7.45;;;;;;;;;;10063710;28;20041;-70
2024/01/06 07:43:44;;;;;;;14.73;12.70;;;;;;;;;;10063741;28;20061;-70
2024/01/06 07:48:36;;;;;;;8.15;7.45;;;;;;;;;;10063401;28;20045;-69
2024/01/06 07:53:28;;;;;;;7.80;5.65;;;;;;;;;;10061020;28;20038;-70
2024/01/06 07:58:21;;;;;;;7.85;7.05;;;;;;;;;;10054490;28;20081;-69
2024/01/06 08:03:13;;;;;;;10.00;9.00;;;;;;;;;;10056644;28;20508;-69
2024/01/06 08:08:06;;;;;;;8.90;8.00;;;;;;;;;;10063439;28;20144;-70
2024/01/06 08:12:58;;;;;;;12.55;10.75;;;;;;;;;;10063236;28;20490;-70
2024/01/06 08:17:50;;;;;;;7.03;6.32;;;;;;;;;;10062541;28;20287;-70
2024/01/06 08:22:43;;;;;;;7.35;6.65;;;;;;;;;;10042553;28;20053;-70
2024/01/06 08:27:35;;;;;;;8.80;7.93;;;;;;;;;;10055770;28;20045;-70
2024/01/06 08:32:27;;;;;;;9.10;8.32;;;;;;;;;;10051865;28;20053;-70
2024/01/06 08:37:19;;;;;;;6.30;5.80;;;;;;;;;;10070815;28;20403;-70
2024/01/06 08:42:11;;;;;;;7.65;6.95;;;;;;;;;;10056054;28;20096;-71
2024/01/06 08:47:03;;;;;;;6.63;6.03;;;;;;;;;;10033311;28;20080;-70
2024/01/06 08:51:55;;;;;;;8.35;7.65;;;;;;;;;;10033117;28;20136;-71
2024/01/06 08:56:47;;;;;;;14.30;9.02;;;;;;;;;;10032714;28;20054;-69
2024/01/06 09:01:39;;;;;;;9.18;8.27;;;;;;;;;;10032328;28;20037;-72
2024/01/06 09:06:31;;;;;;;8.15;7.45;;;;;;;;;;10032763;28;20125;-71
2024/01/06 09:11:23;;;;;;;10.57;9.48;;;;;;;;;;10032040;28;20046;-74
2024/01/06 09:16:15;;;;;;;10.55;9.52;;;;;;;;;;10030377;28;20096;-77
2024/01/06 09:21:07;;;;;;;13.07;11.80;;;;;;;;;;10030621;28;20049;-77
2024/01/06 09:25:59;;;;;;;11.98;10.70;;;;;;;;;;10031370;28;20396;-77
2024/01/06 09:30:52;;;;;;;9.18;8.35;;;;;;;;;;10026323;28;20366;-76
2024/01/06 09:35:44;;;;;;;7.95;7.25;;;;;;;;;;10025186;28;20076;-76
2024/01/06 09:40:42;;;;;;;8.60;7.80;;;;;;;;;;10027349;28;20070;-77
2024/01/06 09:45:34;;;;;;;10.15;8.40;;;;;;;;;;10029221;28;20045;-76
2024/01/06 09:50:26;;;;;;;9.65;8.68;;;;;;;;;;10029500;28;20136;-77
2024/01/06 09:55:23;;;;;;;10.35;8.52;;;;;;;;;;10028635;28;20418;-77
2024/01/06 10:00:15;;;;;;;11.00;9.93;;;;;;;;;;10029782;28;20053;-78
2024/01/06 10:05:07;;;;;;;9.27;8.38;;;;;;;;;;10027713;28;20053;-77
2024/01/06 10:09:59;;;;;;;10.10;9.15;;;;;;;;;;10028375;28;20128;-76
2024/01/06 10:14:52;;;;;;;8.23;7.43;;;;;;;;;;10043350;28;20137;-76
2024/01/06 10:19:49;;;;;;;12.98;8.93;;;;;;;;;;10028801;28;20495;-78
2024/01/06 10:24:41;;;;;;;8.98;7.88;;;;;;;;;;10027999;28;20084;-77
2024/01/06 10:29:33;;;;;;;8.10;7.30;;;;;;;;;;10027641;28;20052;-77
2024/01/06 10:34:25;;;;;;;7.45;6.75;;;;;;;;;;10027337;28;20050;-76
2024/01/06 10:39:18;;;;;;;8.65;6.75;;;;;;;;;;10027231;28;20128;-77
2024/01/06 10:44:11;;;;;;;8.73;7.82;;;;;;;;;;10032143;28;20037;-77
2024/01/06 10:49:03;;;;;;;7.72;7.00;;;;;;;;;;10035162;28;20090;-77
2024/01/06 10:53:56;;;;;;;8.18;7.38;;;;;;;;;;10029248;28;20060;-77
2024/01/06 10:58:50;;;;;;;9.02;8.05;;;;;;;;;;10036930;28;20057;-77
2024/01/06 11:03:42;;;;;;;12.05;10.68;;;;;;;;;;10027903;28;20046;-74
2024/01/06 11:08:43;;;;;;;7.53;6.68;;;;;;;;;;10034466;28;20118;-73
2024/01/06 11:13:34;;;;;;;6.57;5.97;;;;;;;;;;10025445;28;20057;-73
2024/01/06 11:18:38;;;;;;;6.82;6.22;;;;;;;;;;10027154;28;20049;-73
2024/01/06 11:23:31;;;;;;;9.38;8.48;;;;;;;;;;10026316;28;20049;-74
2024/01/06 11:28:25;;;;;;;8.43;6.40;;;;;;;;;;10040063;28;20070;-73
2024/01/06 11:33:17;;;;;;;6.28;5.00;;;;;;;;;;10025853;28;20495;-73
2024/01/06 11:38:12;;;;;;;8.32;6.13;;;;;;;;;;10032314;28;20053;-73
2024/01/06 11:43:07;;;;;;;7.25;6.55;;;;;;;;;;10031034;28;20046;-74
2024/01/06 11:48:06;;;;;;;7.05;6.40;;;;;;;;;;10033726;28;20116;-73
2024/01/06 11:53:02;;;;;;;4.93;4.53;;;;;;;;;;10025107;28;20081;-73
2024/01/06 11:57:57;;;;;;;12.30;11.00;;;;;;;;;;10037615;28;20050;-74
2024/01/06 12:02:49;;;;;;;7.03;6.32;;;;;;;;;;10047062;28;20049;-74
2024/01/06 12:07:45;;;;;;;10.85;9.68;;;;;;;;;;10057778;28;20096;-73
2024/01/06 12:12:37;;;;;;;8.48;7.68;;;;;;;;;;10039986;28;20092;-74
2024/01/06 12:17:30;;;;;;;7.93;7.22;;;;;;;;;;10040092;28;20049;-74
2024/01/06 12:22:22;;;;;;;7.18;5.15;;;;;;;;;;10047298;28;20527;-73
2024/01/06 12:27:14;;;;;;;11.07;5.95;;;;;;;;;;10033931;28;20061;-73
2024/01/06 12:32:07;;;;;;;13.70;9.48;;;;;;;;;;10032056;28;20445;-74
2024/01/06 12:37:01;;;;;;;8.38;7.30;;;;;;;;;;10047745;28;20053;-73
2024/01/06 12:41:55;;;;;;;7.30;6.60;;;;;;;;;;10032027;28;20126;-73
2024/01/06 12:46:47;;;;;;;7.60;6.88;;;;;;;;;;10031673;28;20046;-73
2024/01/06 12:51:39;;;;;;;8.43;6.80;;;;;;;;;;10031248;28;20050;-73
2024/01/06 12:56:31;;;;;;;10.43;7.13;;;;;;;;;;10041007;28;20247;-73
2024/01/06 13:01:23;;;;;;;6.15;5.60;;;;;;;;;;10081920;28;20042;-73
2024/01/06 13:06:15;;;;;;;9.63;8.05;;;;;;;;;;10063540;28;20136;-72
2024/01/06 13:11:08;;;;;;;6.93;6.32;;;;;;;;;;10065015;28;20092;-72
2024/01/06 13:16:03;;;;;;;13.07;8.40;;;;;;;;;;10063030;28;20429;-73
2024/01/06 13:20:55;;;;;;;6.43;5.82;;;;;;;;;;10065921;28;20052;-73
2024/01/06 13:25:47;;;;;;;10.98;8.73;;;;;;;;;;10062316;28;20041;-73
2024/01/06 13:30:40;;;;;;;13.90;10.10;;;;;;;;;;10055987;28;20089;-73
2024/01/06 13:35:32;;;;;;;10.20;9.23;;;;;;;;;;10067742;28;20132;-73
2024/01/06 13:40:24;;;;;;;10.40;8.32;;;;;;;;;;10066961;28;20041;-73
2024/01/06 13:45:17;;;;;;;13.57;10.75;;;;;;;;;;10065738;28;20068;-74
2024/01/06 13:50:10;;;;;;;6.85;6.03;;;;;;;;;;10067229;28;20092;-73
2024/01/06 13:55:02;;;;;;;6.30;5.63;;;;;;;;;;10065986;28;20111;-74
2024/01/06 13:59:54;;;;;;;7.53;6.20;;;;;;;;;;10066598;28;20388;-74
2024/01/06 14:04:46;;;;;;;4.70;3.88;;;;;;;;;;10064252;28;20038;-74
2024/01/06 14:09:38;;;;;;;7.30;3.88;;;;;;;;;;10062270;28;20057;-73
2024/01/06 14:14:31;;;;;;;4.80;4.13;;;;;;;;;;10062431;28;20046;-75
2024/01/06 14:19:23;;;;;;;7.40;5.65;;;;;;;;;;10063763;28;20107;-74
2024/01/06 14:24:18;;;;;;;4.00;3.70;;;;;;;;;;10066391;28;20069;-74
2024/01/06 14:29:11;;;;;;;10.70;8.23;;;;;;;;;;10064650;28;20081;-74
2024/01/06 14:34:03;;;;;;;4.30;3.90;;;;;;;;;;10065359;28;20057;-73
2024/01/06 14:38:55;;;;;;;8.00;4.75;;;;;;;;;;10065268;28;20484;-73
2024/01/06 14:43:48;;;;;;;10.38;6.90;;;;;;;;;;10064568;28;20468;-73
2024/01/06 14:48:40;;;;;;;10.90;8.20;;;;;;;;;;10059758;28;20080;-73
2024/01/06 14:53:34;;;;;;;8.85;5.43;;;;;;;;;;10064867;28;20180;-74
2024/01/06 14:58:26;;;;;;;7.75;6.18;;;;;;;;;;10065905;28;20046;-73
2024/01/06 15:03:18;;;;;;;10.15;7.28;;;;;;;;;;10063858;28;20049;-74
2024/01/06 15:08:10;;;;;;;8.93;6.22;;;;;;;;;;10063446;28;20135;-74
2024/01/06 15:13:03;;;;;;;6.90;4.20;;;;;;;;;;10054948;28;20113;-74
2024/01/06 15:17:55;;;;;;;5.05;4.20;;;;;;;;;;10063625;28;20050;-77
2024/01/06 15:22:47;;;;;;;4.70;4.22;;;;;;;;;;10063797;28;20392;-74
2024/01/06 15:27:39;;;;;;;8.63;7.20;;;;;;;;;;10063805;28;20050;-74
2024/01/06 15:32:31;;;;;;;6.85;6.13;;;;;;;;;;10054399;28;20054;-74
2024/01/06 15:37:23;;;;;;;4.47;4.07;;;;;;;;;;10034208;28;20053;-74
2024/01/06 15:42:14;;;;;;;3.67;3.22;;;;;;;;;;10036078;28;20536;-74
2024/01/06 15:47:06;;;;;;;4.40;3.97;;;;;;;;;;10034365;28;20046;-74
2024/01/06 15:51:59;;;;;;;5.15;4.70;;;;;;;;;;10035275;28;20128;-74
2024/01/06 15:56:51;;;;;;;8.20;6.03;;;;;;;;;;10033971;28;20050;-74
2024/01/06 16:01:42;;;;;;;5.03;4.53;;;;;;;;;;10036993;28;20049;-74
2024/01/06 16:06:34;;;;;;;7.90;7.05;;;;;;;;;;10038083;28;20053;-73
2024/01/06 16:11:28;;;;;;;5.85;5.32;;;;;;;;;;10066365;28;20053;-74
2024/01/06 16:16:21;;;;;;;12.15;8.00;;;;;;;;;;10064890;28;20063;-74
2024/01/06 16:21:21;;;;;;;5.15;4.13;;;;;;;;;;10066689;28;20266;-74
2024/01/06 16:26:13;;;;;;;10.25;7.75;;;;;;;;;;10072206;28;20046;-75
2024/01/06 16:31:05;;;;;;;9.77;6.05;;;;;;;;;;10064941;28;20332;-74
2024/01/06 16:35:57;;;;;;;3.25;2.95;;;;;;;;;;10065005;28;20111;-73
2024/01/06 16:40:49;;;;;;;8.15;5.63;;;;;;;;;;10063352;28;20120;-73
2024/01/06 16:45:41;;;;;;;3.85;2.80;;;;;;;;;;10047544;28;20528;-74
2024/01/06 16:50:33;;;;;;;4.00;3.38;;;;;;;;;;10069252;28;20111;-74
2024/01/06 16:55:29;;;;;;;5.90;3.97;;;;;;;;;;10069049;28;20056;-74
2024/01/06 17:00:22;;;;;;;6.93;3.92;;;;;;;;;;10068792;28;20365;-73
2024/01/06 17:05:14;;;;;;;6.20;5.22;;;;;;;;;;10069563;28;20402;-74
2024/01/06 17:10:07;;;;;;;2.47;2.35;;;;;;;;;;10068115;28;20095;-74
2024/01/06 17:14:59;;;;;;;4.20;3.80;;;;;;;;;;10068429;28;20042;-74
2024/01/06 17:19:53;;;;;;;6.25;5.57;;;;;;;;;;10068692;28;20049;-74
2024/01/06 17:24:45;;;;;;;4.93;3.63;;;;;;;;;;10061244;28;20053;-73
2024/01/06 17:29:37;;;;;;;13.98;9.77;;;;;;;;;;10054198;28;20145;-73
2024/01/06 17:34:29;;;;;;;8.63;7.00;;;;;;;;;;10067620;28;20081;-74
2024/01/06 17:39:21;;;;;;;8.65;7.35;;;;;;;;;;10067877;28;20053;-74
2024/01/06 17:44:13;;;;;;;23.35;16.98;;;;;;;;;;10034391;28;20053;-74
2024/01/06 17:49:06;;;;;;;12.95;8.52;;;;;;;;;;10063101;28;20099;-73
2024/01/06 17:53:58;;;;;;;10.57;9.52;;;;;;;;;;10043951;28;20129;-74
2024/01/06 17:58:50;;;;;;;8.98;7.05;;;;;;;;;;10045135;28;20460;-74
2024/01/06 18:03:42;;;;;;;10.10;8.20;;;;;;;;;;10061791;28;20041;-74
2024/01/06 18:08:34;;;;;;;5.38;4.63;;;;;;;;;;10028702;28;20164;-74
2024/01/06 18:13:25;;;;;;;7.03;5.78;;;;;;;;;;10028116;28;20140;-74
2024/01/06 18:18:17;;;;;;;10.98;6.97;;;;;;;;;;10029721;28;20038;-75
2024/01/06 18:23:10;;;;;;;5.65;5.15;;;;;;;;;;10027783;28;20077;-75
2024/01/06 18:28:02;;;;;;;12.05;9.90;;;;;;;;;;10033844;28;20052;-75
2024/01/06 18:32:57;;;;;;;10.45;8.40;;;;;;;;;;10030632;28;20081;-74
2024/01/06 18:37:49;;;;;;;7.30;6.60;;;;;;;;;;10041966;28;20042;-73
2024/01/06 18:42:41;;;;;;;10.35;7.47;;;;;;;;;;10032704;28;20145;-73
2024/01/06 18:47:33;;;;;;;9.57;7.05;;;;;;;;;;10031754;28;20433;-73
2024/01/06 18:52:24;;;;;;;6.22;5.43;;;;;;;;;;10028197;28;20042;-74
2024/01/06 18:57:17;;;;;;;7.97;6.60;;;;;;;;;;10027821;28;20659;-74
2024/01/06 19:02:11;;;;;;;8.30;6.95;;;;;;;;;;10048615;28;20045;-74
2024/01/06 19:07:03;;;;;;;8.13;7.35;;;;;;;;;;10032591;28;20045;-74
2024/01/06 19:11:56;;;;;;;12.52;9.25;;;;;;;;;;10029857;28;20057;-74
2024/01/06 19:16:48;;;;;;;7.22;5.95;;;;;;;;;;10030454;28;20076;-75
2024/01/06 19:21:40;;;;;;;10.43;9.10;;;;;;;;;;10028741;28;20104;-75
2024/01/06 19:26:32;;;;;;;10.63;9.63;;;;;;;;;;10028526;28;20042;-74
2024/01/06 19:31:24;;;;;;;13.43;11.48;;;;;;;;;;10033862;28;20142;-76
2024/01/06 19:36:16;;;;;;;12.10;10.90;;;;;;;;;;10031394;28;20053;-75
2024/01/06 19:41:08;;;;;;;17.65;14.02;;;;;;;;;;10029171;28;20149;-77
2024/01/06 19:46:01;;;;;;;9.98;9.05;;;;;;;;;;10026517;28;20100;-74
2024/01/06 19:50:53;;;;;;;11.55;10.45;;;;;;;;;;10037215;28;20061;-75
2024/01/06 19:55:45;;;;;;;10.55;9.45;;;;;;;;;;10044455;28;20062;-75
2024/01/06 20:00:37;;;;;;;12.35;11.15;;;;;;;;;;10027173;28;20050;-75
2024/01/06 20:05:29;;;;;;;9.18;8.38;;;;;;;;;;10027060;28;20439;-76
2024/01/06 20:10:21;;;;;;;13.95;11.45;;;;;;;;;;10030547;28;20500;-75
2024/01/06 20:15:13;;;;;;;10.60;9.35;;;;;;;;;;10063505;28;20057;-76
2024/01/06 20:20:08;;;;;;;12.30;10.98;;;;;;;;;;10076876;28;20358;-75
2024/01/06 20:25:01;;;;;;;12.18;10.70;;;;;;;;;;10070960;28;20476;-75
2024/01/06 20:29:53;;;;;;;12.15;9.32;;;;;;;;;;10070544;28;20077;-75
2024/01/06 20:34:45;;;;;;;9.30;8.35;;;;;;;;;;10069800;28;20046;-75
2024/01/06 20:39:38;;;;;;;8.63;7.82;;;;;;;;;;10070604;28;20371;-75
2024/01/06 20:44:30;;;;;;;10.73;9.73;;;;;;;;;;10069876;28;20400;-75
2024/01/06 20:49:23;;;;;;;9.88;8.98;;;;;;;;;;10070568;28;20041;-74
2024/01/06 20:54:17;;;;;;;8.48;7.68;;;;;;;;;;10071070;28;20042;-75
2024/01/06 20:59:09;;;;;;;9.85;8.85;;;;;;;;;;10070278;28;20033;-75
2024/01/06 21:04:01;;;;;;;8.02;7.22;;;;;;;;;;10062334;28;20053;-75
2024/01/06 21:08:53;;;;;;;13.32;9.73;;;;;;;;;;10070772;28;20073;-75
2024/01/06 21:13:45;;;;;;;5.82;5.25;;;;;;;;;;10066214;28;20085;-75
2024/01/06 21:18:37;;;;;;;12.68;9.18;;;;;;;;;;10056338;28;20079;-75
2024/01/06 21:23:29;;;;;;;9.88;8.77;;;;;;;;;;10059001;28;20459;-75
2024/01/06 21:28:36;;;;;;;3.78;3.47;;;;;;;;;;10069008;28;20041;-75
2024/01/06 21:33:27;;;;;;;6.85;6.15;;;;;;;;;;10068551;28;20076;-74
2024/01/06 21:38:19;;;;;;;5.50;5.00;;;;;;;;;;10068897;28;20049;-75
2024/01/06 21:43:11;;;;;;;7.22;6.15;;;;;;;;;;10068446;28;20165;-75
2024/01/06 21:48:04;;;;;;;7.07;5.65;;;;;;;;;;10067284;28;20089;-75
2024/01/06 21:52:56;;;;;;;6.15;5.32;;;;;;;;;;10068328;28;20053;-74
2024/01/06 21:57:48;;;;;;;5.70;5.13;;;;;;;;;;10068111;28;20432;-75
2024/01/06 22:02:40;;;;;;;5.97;5.13;;;;;;;;;;10062697;28;20069;-74
2024/01/06 22:07:32;;;;;;;10.43;8.10;;;;;;;;;;10067489;28;20056;-75
2024/01/06 22:12:24;;;;;;;8.30;7.25;;;;;;;;;;10067587;28;20047;-75
2024/01/06 22:17:16;;;;;;;6.03;5.45;;;;;;;;;;10067494;28;20041;-74
2024/01/06 22:22:08;;;;;;;6.38;5.78;;;;;;;;;;10066727;28;20041;-74
2024/01/06 22:26:59;;;;;;;6.47;5.88;;;;;;;;;;10066357;28;20132;-75
2024/01/06 22:31:51;;;;;;;6.78;6.07;;;;;;;;;;10066852;28;20536;-74
2024/01/06 22:36:46;;;;;;;8.52;7.72;;;;;;;;;;10066186;28;20103;-74
2024/01/06 22:41:38;;;;;;;7.63;6.88;;;;;;;;;;10065077;28;20120;-77
2024/01/06 22:46:30;;;;;;;6.88;6.28;;;;;;;;;;10066249;28;20064;-74
2024/01/06 22:51:22;;;;;;;8.98;7.22;;;;;;;;;;10065921;28;20041;-74
2024/01/06 22:56:14;;;;;;;13.60;12.23;;;;;;;;;;10060736;28;20049;-75
2024/01/06 23:01:06;;;;;;;21.67;18.92;;;;;;;;;;10065533;28;20046;-74
2024/01/06 23:05:58;;;;;;;19.50;17.27;;;;;;;;;;10065326;28;20052;-74
2024/01/06 23:10:50;;;;;;;11.88;10.68;;;;;;;;;;10065248;28;20388;-73
2024/01/06 23:15:43;;;;;;;14.07;12.38;;;;;;;;;;10065694;28;20037;-74
2024/01/06 23:20:35;;;;;;;16.38;13.65;;;;;;;;;;10064891;28;20201;-73
2024/01/06 23:25:27;;;;;;;18.63;14.13;;;;;;;;;;10065478;28;20087;-74
2024/01/06 23:30:19;;;;;;;23.80;17.92;;;;;;;;;;10064511;28;20049;-74
2024/01/06 23:35:11;;;;;;;14.90;12.57;;;;;;;;;;10064676;28;20363;-73
2024/01/06 23:40:04;;;;;;;17.17;14.10;;;;;;;;;;10064507;28;20140;-77
2024/01/06 23:44:56;;;;;;;14.63;13.07;;;;;;;;;;10064048;28;20050;-74
2024/01/06 23:49:48;;;;;;;13.95;11.90;;;;;;;;;;10064464;28;20415;-74
2024/01/06 23:54:40;;;;;;;14.32;11.68;;;;;;;;;;10068504;28;20160;-73
2024/01/06 23:59:32;;;;;;;16.90;12.85;;;;;;;;;;10072207;28;20041;-74
